createdAt,value
2022-11-10T00:01:08.336Z,0.80
2022-11-10T00:03:37.159Z,1.00
2022-11-10T00:06:05.759Z,1.10
2022-11-10T00:08:32.522Z,1.03
2022-11-10T00:11:01.229Z,1.13
2022-11-10T00:13:35.108Z,1.13
2022-11-10T00:16:24.384Z,0.97
2022-11-10T00:18:51.222Z,0.80
2022-11-10T00:21:18.379Z,0.90
2022-11-10T00:23:47.420Z,0.90
2022-11-10T00:26:16.775Z,1.13
2022-11-10T00:28:43.841Z,1.10
2022-11-10T00:31:11.389Z,1.27
2022-11-10T00:33:39.602Z,0.80
2022-11-10T00:36:06.641Z,1.03
2022-11-10T00:38:33.650Z,1.00
2022-11-10T00:41:01.229Z,0.97
2022-11-10T00:43:29.244Z,1.10
2022-11-10T00:45:56.383Z,0.97
2022-11-10T00:48:23.271Z,0.90
2022-11-10T00:50:50.191Z,0.90
2022-11-10T00:53:16.946Z,0.90
2022-11-10T00:55:43.820Z,0.80
2022-11-10T00:58:10.555Z,0.83
2022-11-10T01:00:37.243Z,1.00
2022-11-10T01:03:03.955Z,0.87
2022-11-10T01:05:31.028Z,0.90
2022-11-10T01:07:59.533Z,0.93
2022-11-10T01:10:27.046Z,1.00
2022-11-10T01:12:54.132Z,1.20
2022-11-10T01:15:26.163Z,1.77
2022-11-10T01:17:55.380Z,1.80
2022-11-10T01:20:22.863Z,2.30
2022-11-10T01:22:49.538Z,1.73
2022-11-10T01:25:16.249Z,1.90
2022-11-10T01:27:42.877Z,1.57
2022-11-10T01:30:09.941Z,1.50
2022-11-10T01:32:36.563Z,1.50
2022-11-10T01:35:03.500Z,1.50
2022-11-10T01:37:30.115Z,1.47
2022-11-10T01:39:57.862Z,1.43
2022-11-10T01:42:26.929Z,1.67
2022-11-10T01:45:24.796Z,1.40
2022-11-10T01:47:54.840Z,1.50
2022-11-10T01:50:24.383Z,1.40
2022-11-10T01:52:54.504Z,1.40
2022-11-10T01:55:21.534Z,1.50
2022-11-10T01:57:48.379Z,1.50
2022-11-10T02:00:15.534Z,1.70
2022-11-10T02:02:52.917Z,1.40
2022-11-10T02:05:21.655Z,1.63
2022-11-10T02:07:50.511Z,1.57
2022-11-10T02:10:19.808Z,1.63
2022-11-10T02:12:48.048Z,1.63
2022-11-10T02:15:17.040Z,1.67
2022-11-10T02:17:45.947Z,1.53
2022-11-10T02:20:16.492Z,1.70
2022-11-10T02:22:43.178Z,1.60
2022-11-10T02:25:09.997Z,1.60
2022-11-10T02:27:36.591Z,1.70
2022-11-10T02:30:03.970Z,1.27
2022-11-10T02:32:30.569Z,1.60
2022-11-10T02:34:57.163Z,1.37
2022-11-10T02:37:23.782Z,1.50
2022-11-10T02:39:50.388Z,1.27
2022-11-10T02:42:17.020Z,1.50
2022-11-10T02:44:43.698Z,1.80
2022-11-10T02:47:10.325Z,1.53
2022-11-10T02:49:36.947Z,1.80
2022-11-10T02:52:03.682Z,1.73
2022-11-10T02:54:30.370Z,1.70
2022-11-10T02:56:56.958Z,1.57
2022-11-10T02:59:23.571Z,1.60
2022-11-10T03:01:50.174Z,1.73
2022-11-10T03:04:16.800Z,1.60
2022-11-10T03:06:43.422Z,1.53
2022-11-10T03:09:10.259Z,1.60
2022-11-10T03:11:36.856Z,1.93
2022-11-10T03:14:03.837Z,1.80
2022-11-10T03:16:30.490Z,1.63
2022-11-10T03:18:57.087Z,1.90
2022-11-10T03:21:24.673Z,1.47
2022-11-10T03:23:51.269Z,1.90
2022-11-10T03:26:17.869Z,2.13
2022-11-10T03:28:44.481Z,2.10
2022-11-10T03:31:11.067Z,1.70
2022-11-10T03:33:37.645Z,1.70
2022-11-10T03:36:04.459Z,1.87
2022-11-10T03:38:31.066Z,1.90
2022-11-10T03:41:18.149Z,1.90
2022-11-10T03:43:44.245Z,1.77
2022-11-10T03:46:10.876Z,1.93
2022-11-10T03:48:37.481Z,1.90
2022-11-10T03:51:04.100Z,1.70
2022-11-10T03:53:30.707Z,1.97
2022-11-10T03:56:01.005Z,1.80
2022-11-10T03:58:27.777Z,1.50
2022-11-10T04:00:55.249Z,1.60
2022-11-10T04:03:22.691Z,1.70
2022-11-10T04:06:08.457Z,1.67
2022-11-10T04:08:53.913Z,1.73
2022-11-10T04:11:39.893Z,1.97
2022-11-10T04:14:25.250Z,1.80
2022-11-10T04:16:51.837Z,2.23
2022-11-10T04:19:18.655Z,1.90
2022-11-10T04:21:45.442Z,1.90
2022-11-10T04:24:12.065Z,1.90
2022-11-10T04:26:40.415Z,2.00
2022-11-10T04:29:11.315Z,3.10
2022-11-10T04:31:40.373Z,1.70
2022-11-10T04:34:09.339Z,1.80
2022-11-10T04:36:38.694Z,1.80
2022-11-10T04:39:06.602Z,1.63
2022-11-10T04:41:33.613Z,1.13
2022-11-10T04:44:01.006Z,1.30
2022-11-10T04:46:39.359Z,1.30
2022-11-10T04:49:07.133Z,1.37
2022-11-10T04:51:36.495Z,1.43
2022-11-10T04:54:03.955Z,1.17
2022-11-10T04:56:30.722Z,1.60
2022-11-10T04:58:57.597Z,1.40
2022-11-10T05:01:26.646Z,1.23
2022-11-10T05:03:53.763Z,1.30
2022-11-10T05:06:20.856Z,1.40
2022-11-10T05:08:47.946Z,1.67
2022-11-10T05:11:15.140Z,1.50
2022-11-10T05:13:42.344Z,1.83
2022-11-10T05:16:09.210Z,1.77
2022-11-10T05:18:35.862Z,1.70
2022-11-10T05:21:02.591Z,1.70
2022-11-10T05:23:38.183Z,1.50
2022-11-10T05:26:06.170Z,1.50
2022-11-10T05:28:33.090Z,1.80
2022-11-10T05:30:59.797Z,1.70
2022-11-10T05:33:26.523Z,1.77
2022-11-10T05:35:53.222Z,2.23
2022-11-10T05:38:19.895Z,2.10
2022-11-10T05:40:46.507Z,2.10
2022-11-10T05:43:13.353Z,2.20
2022-11-10T05:45:40.100Z,2.27
2022-11-10T05:48:06.931Z,2.07
2022-11-10T05:50:33.649Z,2.43
2022-11-10T05:53:00.382Z,2.30
2022-11-10T05:55:29.106Z,2.30
2022-11-10T05:57:57.124Z,2.30
2022-11-10T06:00:26.800Z,2.70
2022-11-10T06:03:01.692Z,2.27
2022-11-10T06:05:31.512Z,2.60
2022-11-10T06:07:58.938Z,2.80
2022-11-10T06:10:26.082Z,2.20
2022-11-10T06:12:52.983Z,2.43
2022-11-10T06:15:20.555Z,2.10
2022-11-10T06:17:47.853Z,2.37
2022-11-10T06:20:17.124Z,2.90
2022-11-10T06:22:45.174Z,2.83
2022-11-10T06:25:12.037Z,2.60
2022-11-10T06:27:42.522Z,2.57
2022-11-10T06:30:09.964Z,2.43
2022-11-10T06:32:37.010Z,1.90
2022-11-10T06:35:03.803Z,2.13
2022-11-10T06:37:30.589Z,2.17
2022-11-10T06:39:57.305Z,1.57
2022-11-10T06:42:23.925Z,2.00
2022-11-10T06:44:50.631Z,1.90
2022-11-10T06:47:18.392Z,1.83
2022-11-10T06:49:45.011Z,1.60
2022-11-10T06:52:11.609Z,2.00
2022-11-10T06:54:38.234Z,2.20
2022-11-10T06:57:04.845Z,2.10
2022-11-10T06:59:31.438Z,1.70
2022-11-10T07:01:58.048Z,2.20
2022-11-10T07:04:24.714Z,2.00
2022-11-10T07:06:51.828Z,1.90
2022-11-10T07:09:18.499Z,1.87
2022-11-10T07:11:45.138Z,2.37
2022-11-10T07:14:11.790Z,2.37
2022-11-10T07:16:38.474Z,2.07
2022-11-10T07:19:05.210Z,2.70
2022-11-10T07:21:31.863Z,2.20
2022-11-10T07:23:58.508Z,2.20
2022-11-10T07:26:25.077Z,2.10
2022-11-10T07:28:51.704Z,2.40
2022-11-10T07:31:18.339Z,2.10
2022-11-10T07:33:47.494Z,2.27
2022-11-10T07:36:16.115Z,2.60
2022-11-10T07:38:42.795Z,2.13
2022-11-10T07:41:09.480Z,2.37
2022-11-10T07:43:36.431Z,3.27
2022-11-10T07:46:03.210Z,3.10
2022-11-10T07:48:29.866Z,3.60
2022-11-10T07:50:56.509Z,3.60
2022-11-10T07:53:23.490Z,3.80
2022-11-10T07:55:50.356Z,3.40
2022-11-10T07:58:18.165Z,3.33
2022-11-10T08:00:45.993Z,2.87
2022-11-10T08:03:12.580Z,3.20
2022-11-10T08:05:39.555Z,3.27
2022-11-10T08:08:06.897Z,3.47
2022-11-10T08:10:34.589Z,4.10
2022-11-10T08:13:02.851Z,3.83
2022-11-10T08:15:31.311Z,3.20
2022-11-10T08:18:02.657Z,3.37
2022-11-10T08:20:30.230Z,2.80
2022-11-10T08:22:59.472Z,2.80
2022-11-10T08:25:33.208Z,2.67
2022-11-10T08:28:09.720Z,3.00
2022-11-10T08:30:37.804Z,2.97
2022-11-10T08:33:06.032Z,3.67
2022-11-10T08:35:36.681Z,3.90
2022-11-10T08:38:09.551Z,3.53
2022-11-10T08:40:37.101Z,4.03
2022-11-10T08:43:07.289Z,4.73
2022-11-10T08:45:38.620Z,3.30
2022-11-10T08:48:07.345Z,3.23
2022-11-10T08:50:34.174Z,3.47
2022-11-10T08:53:02.566Z,3.60
2022-11-10T08:55:29.505Z,3.07
2022-11-10T08:58:03.201Z,3.30
2022-11-10T09:00:31.734Z,3.03
2022-11-10T09:03:25.905Z,3.07
2022-11-10T09:05:57.950Z,3.83
2022-11-10T09:08:25.304Z,3.73
2022-11-10T09:10:52.107Z,3.60
2022-11-10T09:13:27.771Z,2.93
2022-11-10T09:15:56.437Z,3.50
2022-11-10T09:18:23.182Z,3.50
2022-11-10T09:20:49.791Z,3.00
2022-11-10T09:23:18.674Z,4.20
2022-11-10T09:25:51.029Z,3.30
2022-11-10T09:28:18.857Z,3.40
2022-11-10T09:30:47.006Z,3.23
2022-11-10T09:33:13.828Z,3.00
2022-11-10T09:35:40.704Z,3.50
2022-11-10T09:38:07.625Z,2.83
2022-11-10T09:40:50.807Z,3.10
2022-11-10T09:43:42.949Z,3.20
2022-11-10T09:46:28.696Z,2.60
2022-11-10T09:49:00.816Z,2.67
2022-11-10T09:51:48.420Z,3.30
2022-11-10T09:54:31.221Z,2.40
2022-11-10T09:57:02.396Z,2.23
2022-11-10T09:59:32.366Z,2.37
2022-11-10T10:02:31.244Z,2.10
2022-11-10T10:05:46.392Z,2.10
2022-11-10T10:08:21.895Z,1.67
2022-11-10T10:11:00.357Z,1.80
2022-11-10T10:13:46.408Z,1.80
2022-11-10T10:16:39.475Z,1.90
2022-11-10T10:19:16.834Z,1.40
2022-11-10T10:22:03.678Z,1.50
2022-11-10T10:24:32.459Z,1.73
2022-11-10T10:27:03.359Z,1.37
2022-11-10T10:29:40.151Z,1.50
2022-11-10T10:32:12.840Z,1.57
2022-11-10T10:34:41.109Z,1.40
2022-11-10T10:37:22.696Z,1.37
2022-11-10T10:39:51.984Z,1.33
2022-11-10T10:42:29.715Z,1.70
2022-11-10T10:45:22.856Z,1.30
2022-11-10T10:47:52.389Z,1.20
2022-11-10T10:50:30.417Z,1.50
2022-11-10T10:53:15.728Z,1.27
2022-11-10T10:56:06.973Z,1.20
2022-11-10T10:58:36.993Z,1.20
2022-11-10T11:01:30.538Z,1.67
2022-11-10T11:03:58.695Z,1.10
2022-11-10T11:06:28.754Z,1.03
2022-11-10T11:08:59.705Z,0.93
2022-11-10T11:11:40.842Z,1.10
2022-11-10T11:14:25.409Z,0.93
2022-11-10T11:16:54.400Z,1.10
2022-11-10T11:19:24.818Z,1.00
2022-11-10T11:22:14.159Z,0.90
2022-11-10T11:25:25.741Z,0.80
2022-11-10T11:27:52.969Z,1.00
2022-11-10T11:30:24.870Z,1.10
2022-11-10T11:33:13.823Z,0.80
2022-11-10T11:35:46.433Z,0.70
2022-11-10T11:38:37.996Z,0.70
2022-11-10T11:41:19.431Z,0.70
2022-11-10T11:44:04.681Z,0.80
2022-11-10T11:46:49.630Z,0.67
2022-11-10T11:49:25.033Z,0.73
2022-11-10T11:52:26.830Z,0.50
2022-11-10T11:55:19.840Z,0.50
2022-11-10T11:57:49.662Z,0.63
2022-11-10T12:00:18.897Z,0.40
2022-11-10T12:02:54.468Z,0.90
2022-11-10T12:05:27.182Z,1.40
2022-11-10T12:08:16.953Z,0.60
2022-11-10T12:10:59.585Z,1.03
2022-11-10T12:13:47.755Z,1.43
2022-11-10T12:16:33.478Z,0.60
2022-11-10T12:19:17.765Z,0.70
2022-11-10T12:22:09.811Z,0.60
2022-11-10T12:24:55.329Z,0.53
2022-11-10T12:27:33.712Z,1.00
2022-11-10T12:30:06.101Z,0.50
2022-11-10T12:32:41.853Z,0.93
2022-11-10T12:35:22.432Z,0.67
2022-11-10T12:38:07.417Z,0.73
2022-11-10T12:40:45.580Z,0.97
2022-11-10T12:43:23.270Z,0.50
2022-11-10T12:45:56.657Z,0.30
2022-11-10T12:48:25.032Z,0.57
2022-11-10T12:51:21.707Z,0.90
2022-11-10T12:53:49.459Z,0.60
2022-11-10T12:56:22.557Z,0.37
2022-11-10T12:58:49.228Z,0.60
2022-11-10T13:01:19.661Z,0.90
2022-11-10T13:03:55.929Z,0.60
2022-11-10T13:06:30.465Z,0.70
2022-11-10T13:08:58.648Z,0.37
2022-11-10T13:11:29.207Z,1.27
2022-11-10T13:14:01.193Z,0.73
2022-11-10T13:16:53.885Z,0.70
2022-11-10T13:19:23.345Z,0.60
2022-11-10T13:21:52.974Z,0.70
2022-11-10T13:24:22.053Z,0.60
2022-11-10T13:26:50.589Z,0.50
2022-11-10T13:29:36.114Z,0.30
2022-11-10T13:32:14.797Z,0.30
2022-11-10T13:34:43.631Z,0.40
2022-11-10T13:37:29.160Z,0.40
2022-11-10T13:40:35.059Z,0.30
2022-11-10T13:43:01.665Z,0.30
2022-11-10T13:45:34.992Z,0.40
2022-11-10T13:48:25.512Z,0.37
2022-11-10T13:51:01.235Z,0.57
2022-11-10T13:53:33.824Z,0.40
2022-11-10T13:56:39.251Z,0.37
2022-11-10T13:59:21.212Z,0.30
2022-11-10T14:01:48.289Z,0.40
2022-11-10T14:04:45.217Z,0.57
2022-11-10T14:07:20.594Z,0.30
2022-11-10T14:09:58.787Z,0.70
2022-11-10T14:12:35.241Z,0.40
2022-11-10T14:15:17.351Z,0.50
2022-11-10T14:17:53.163Z,0.60
2022-11-10T14:20:24.970Z,0.50
2022-11-10T14:22:53.664Z,0.70
2022-11-10T14:25:36.066Z,0.60
2022-11-10T14:28:03.646Z,0.50
2022-11-10T14:30:33.419Z,1.43
2022-11-10T14:33:09.090Z,0.67
2022-11-10T14:35:49.514Z,0.50
2022-11-10T14:38:28.076Z,0.60
2022-11-10T14:41:01.188Z,0.60
2022-11-10T14:43:36.945Z,0.60
2022-11-10T14:46:05.963Z,0.60
2022-11-10T14:48:35.127Z,0.50
2022-11-10T14:51:11.659Z,0.60
2022-11-10T14:53:41.286Z,0.50
2022-11-10T14:56:16.224Z,0.60
2022-11-10T14:58:44.547Z,0.53
2022-11-10T15:01:44.820Z,0.50
2022-11-10T15:04:13.974Z,0.70
2022-11-10T15:06:46.816Z,0.30
2022-11-10T15:09:24.654Z,0.80
2022-11-10T15:12:05.203Z,0.77
2022-11-10T15:14:35.396Z,0.40
2022-11-10T15:17:20.787Z,0.60
2022-11-10T15:19:48.483Z,0.37
2022-11-10T15:22:20.136Z,0.47
2022-11-10T15:24:49.796Z,0.80
2022-11-10T15:27:28.876Z,0.70
2022-11-10T15:29:58.275Z,0.50
2022-11-10T15:32:35.788Z,0.90
2022-11-10T15:35:32.010Z,0.80
2022-11-10T15:37:59.731Z,0.80
2022-11-10T15:40:42.639Z,1.00
2022-11-10T15:43:19.053Z,0.80
2022-11-10T15:45:54.552Z,0.70
2022-11-10T15:48:21.725Z,0.70
2022-11-10T15:50:52.614Z,0.77
2022-11-10T15:53:28.670Z,0.80
2022-11-10T15:55:55.362Z,0.70
2022-11-10T15:58:23.599Z,2.23
2022-11-10T16:00:50.594Z,0.80
2022-11-10T16:03:20.183Z,1.00
2022-11-10T16:05:51.085Z,1.00
2022-11-10T16:08:23.017Z,0.90
2022-11-10T16:10:52.685Z,0.90
2022-11-10T16:13:39.871Z,1.50
2022-11-10T16:16:06.793Z,1.30
2022-11-10T16:18:33.482Z,1.77
2022-11-10T16:21:00.147Z,1.40
2022-11-10T16:23:27.348Z,1.27
2022-11-10T16:25:56.248Z,1.20
2022-11-10T16:28:27.877Z,1.00
2022-11-10T16:30:55.249Z,1.13
2022-11-10T16:33:24.495Z,1.17
2022-11-10T16:35:53.027Z,1.60
2022-11-10T16:38:23.464Z,1.60
2022-11-10T16:40:58.825Z,1.70
2022-11-10T16:43:26.703Z,1.77
2022-11-10T16:45:56.648Z,1.10
2022-11-10T16:48:27.912Z,1.40
2022-11-10T16:50:57.627Z,1.30
2022-11-10T16:53:27.730Z,1.60
2022-11-10T16:55:54.464Z,1.30
2022-11-10T16:58:21.546Z,1.20
2022-11-10T17:00:48.965Z,0.90
2022-11-10T17:03:38.102Z,0.93
2022-11-10T17:06:05.351Z,1.43
2022-11-10T17:08:35.086Z,0.93
2022-11-10T17:11:01.701Z,1.20
2022-11-10T17:13:28.383Z,1.23
2022-11-10T17:16:04.956Z,1.00
2022-11-10T17:18:36.556Z,1.20
2022-11-10T17:21:05.356Z,1.23
2022-11-10T17:23:33.416Z,1.30
2022-11-10T17:26:00.113Z,1.10
2022-11-10T17:28:26.796Z,1.07
2022-11-10T17:30:53.796Z,1.70
2022-11-10T17:33:20.906Z,1.57
2022-11-10T17:35:50.660Z,2.47
2022-11-10T17:38:26.296Z,2.03
2022-11-10T17:40:53.604Z,2.07
2022-11-10T17:43:20.923Z,2.00
2022-11-10T17:45:48.079Z,1.87
2022-11-10T17:48:14.873Z,2.17
2022-11-10T17:50:44.048Z,2.10
2022-11-10T17:53:23.825Z,2.20
2022-11-10T17:55:51.168Z,2.27
2022-11-10T17:58:18.398Z,2.27
2022-11-10T18:00:46.009Z,2.60
2022-11-10T18:03:21.741Z,3.07
2022-11-10T18:05:49.513Z,3.17
2022-11-10T18:08:17.242Z,4.00
2022-11-10T18:10:48.296Z,3.20
2022-11-10T18:13:15.643Z,3.10
2022-11-10T18:15:43.869Z,2.67
2022-11-10T18:18:15.473Z,2.87
2022-11-10T18:20:43.106Z,3.40
2022-11-10T18:23:12.426Z,3.07
2022-11-10T18:25:40.419Z,3.07
2022-11-10T18:28:08.043Z,2.03
2022-11-10T18:30:35.528Z,2.90
2022-11-10T18:33:03.287Z,2.70
2022-11-10T18:35:30.780Z,2.90
2022-11-10T18:38:00.995Z,2.90
2022-11-10T18:40:27.730Z,3.13
2022-11-10T18:43:01.753Z,3.40
2022-11-10T18:45:31.453Z,2.80
2022-11-10T18:48:03.691Z,3.40
2022-11-10T18:50:30.640Z,3.40
2022-11-10T18:52:57.585Z,3.37
2022-11-10T18:55:24.795Z,3.50
2022-11-10T18:57:51.669Z,3.40
2022-11-10T19:00:18.627Z,4.60
2022-11-10T19:02:45.374Z,4.40
2022-11-10T19:05:19.420Z,4.90
2022-11-10T19:10:43.632Z,6.70
2022-11-10T19:13:20.777Z,5.87
2022-11-10T19:15:49.989Z,4.90
2022-11-10T19:18:16.728Z,5.27
2022-11-10T19:20:46.156Z,4.13
2022-11-10T19:23:17.740Z,4.10
2022-11-10T19:25:44.421Z,4.43
2022-11-10T19:28:27.986Z,4.10
2022-11-10T19:31:03.479Z,4.03
2022-11-10T19:33:35.444Z,4.07
2022-11-10T19:36:14.778Z,3.80
2022-11-10T19:38:45.922Z,4.83
2022-11-10T19:41:24.508Z,4.60
2022-11-10T19:43:51.196Z,4.47
2022-11-10T19:46:20.753Z,4.47
2022-11-10T19:48:47.505Z,4.17
2022-11-10T19:51:16.653Z,4.80
2022-11-10T19:53:45.759Z,4.10
2022-11-10T19:56:20.123Z,4.90
2022-11-10T19:58:48.127Z,5.10
2022-11-10T20:01:16.755Z,4.33
2022-11-10T20:03:43.627Z,4.43
2022-11-10T20:06:20.660Z,4.27
2022-11-10T20:08:48.378Z,4.80
2022-11-10T20:11:18.653Z,4.50
2022-11-10T20:13:45.312Z,4.40
2022-11-10T20:16:13.015Z,4.10
2022-11-10T20:18:40.650Z,4.30
2022-11-10T20:21:13.351Z,4.50
2022-11-10T20:23:40.517Z,4.23
2022-11-10T20:26:16.178Z,4.30
2022-11-10T20:28:44.086Z,4.50
2022-11-10T20:31:16.323Z,4.03
2022-11-10T20:33:43.328Z,4.03
2022-11-10T20:36:20.342Z,4.53
2022-11-10T20:38:49.128Z,4.57
2022-11-10T20:41:21.517Z,4.83
2022-11-10T20:43:48.700Z,5.23
2022-11-10T20:46:40.323Z,5.07
2022-11-10T20:49:04.837Z,5.00
2022-11-10T20:51:31.600Z,5.60
2022-11-10T20:54:00.327Z,5.63
2022-11-10T20:56:30.018Z,5.33
2022-11-10T20:58:57.825Z,4.73
2022-11-10T21:01:24.851Z,5.40
2022-11-10T21:03:52.090Z,5.60
2022-11-10T21:06:18.802Z,5.67
2022-11-10T21:08:45.550Z,5.20
2022-11-10T21:11:32.691Z,5.57
2022-11-10T21:13:59.766Z,4.97
2022-11-10T21:16:26.395Z,5.97
2022-11-10T21:18:56.296Z,5.23
2022-11-10T21:21:34.348Z,5.03
2022-11-10T21:24:02.749Z,6.33
2022-11-10T21:26:30.627Z,6.53
2022-11-10T21:28:58.284Z,5.87
2022-11-10T21:31:25.048Z,5.53
2022-11-10T21:33:55.671Z,5.90
2022-11-10T21:36:22.923Z,6.00
2022-11-10T21:38:49.606Z,6.13
2022-11-10T21:41:16.299Z,5.93
2022-11-10T21:43:42.962Z,6.73
2022-11-10T21:46:09.848Z,5.97
2022-11-10T21:48:36.766Z,6.87
2022-11-10T21:51:05.506Z,6.13
2022-11-10T21:53:33.596Z,5.77
2022-11-10T21:56:06.208Z,5.60
2022-11-10T21:58:34.012Z,5.30
2022-11-10T22:01:06.109Z,6.10
2022-11-10T22:03:33.677Z,5.40
2022-11-10T22:06:08.367Z,5.33
2022-11-10T22:08:36.333Z,5.17
2022-11-10T22:11:21.847Z,5.50
2022-11-10T22:14:07.751Z,5.60
2022-11-10T22:16:56.799Z,5.00
2022-11-10T22:19:23.618Z,5.10
2022-11-10T22:21:50.262Z,4.97
2022-11-10T22:24:28.956Z,5.03
2022-11-10T22:26:58.653Z,5.03
2022-11-10T22:29:31.509Z,5.37
2022-11-10T22:32:02.369Z,5.00
2022-11-10T22:34:29.171Z,5.33
2022-11-10T22:36:55.858Z,5.47
2022-11-10T22:39:22.901Z,5.03
2022-11-10T22:42:08.043Z,5.47
2022-11-10T22:44:36.038Z,5.93
2022-11-10T22:47:02.712Z,5.53
2022-11-10T22:49:29.352Z,5.73
2022-11-10T22:51:56.046Z,5.73
2022-11-10T22:54:23.542Z,6.43
2022-11-10T22:56:51.385Z,5.40
2022-11-10T22:59:19.107Z,5.80
2022-11-10T23:01:46.245Z,5.10
2022-11-10T23:04:13.689Z,5.83
2022-11-10T23:06:40.465Z,5.10
2022-11-10T23:09:07.433Z,4.83
2022-11-10T23:11:34.412Z,4.97
2022-11-10T23:14:01.047Z,5.03
2022-11-10T23:16:34.153Z,4.93
2022-11-10T23:19:00.839Z,4.63
2022-11-10T23:21:29.950Z,5.20
2022-11-10T23:23:56.955Z,5.87
2022-11-10T23:26:29.870Z,5.87
2022-11-10T23:28:56.698Z,6.07
2022-11-10T23:31:25.946Z,5.00
2022-11-10T23:33:54.939Z,5.97
2022-11-10T23:36:23.944Z,5.63
2022-11-10T23:38:51.071Z,5.97
2022-11-10T23:41:20.167Z,5.50
2022-11-10T23:43:47.429Z,5.73
2022-11-10T23:46:14.051Z,5.47
2022-11-10T23:48:41.158Z,4.90
2022-11-10T23:51:11.334Z,5.93
2022-11-10T23:53:38.441Z,5.47
2022-11-10T23:56:09.028Z,5.97
2022-11-10T23:58:35.849Z,5.73
